Allen, Michigan
Current Conditions -  °F | °C
As of 9:15 AM on Tuesday 27 Jan 2015 (Local Time) from KJYM Reporting Station
Scattered Clouds Scattered Clouds  
Wind Chill:   Ceiling: Unl
Heat Index: 16°   Visibility: 10mi
Dew Point: 12°   Wind: 8mph
Humidity: 82%   Direction: 40°NE
Pressure: 30.06"   Gusts: NA
Location:  41.96°N, 84.77°W
Report Text: KJYM 271415Z AUTO 04007KT 10SM SCT017 M09/M11 A3006 RMK AO2 T10881113
Loading
Personal Weather Stations






























Interactive Weather Map New forecast layout! Learn more

10-Day Weather Forecast

Advertisements
Track Severe Weather on mobile